createdAt,value
2018-09-17T00:00:13.009Z,101412.66
2018-09-17T00:03:17.338Z,101413.51
2018-09-17T00:06:21.667Z,101409.53
2018-09-17T00:09:26.015Z,101414.27
2018-09-17T00:12:30.274Z,101406.39
2018-09-17T00:15:34.629Z,101415.98
2018-09-17T00:18:38.937Z,101410.26
2018-09-17T00:21:43.282Z,101402.81
2018-09-17T00:24:47.588Z,101401.51
2018-09-17T00:27:51.915Z,101395.78
2018-09-17T00:30:56.232Z,101393.55
2018-09-17T00:34:00.541Z,101390.94
2018-09-17T00:37:04.989Z,101390.00
2018-09-17T00:40:09.323Z,101390.38
2018-09-17T00:43:13.627Z,101377.70
2018-09-17T00:46:17.957Z,101359.41
2018-09-17T00:49:22.222Z,101359.41
2018-09-17T00:52:26.606Z,101357.60
2018-09-17T00:55:30.909Z,101365.86
2018-09-17T00:58:35.228Z,101364.02
2018-09-17T01:01:39.529Z,101357.88
2018-09-17T01:04:43.791Z,101352.19
2018-09-17T01:07:48.097Z,101348.27
2018-09-17T01:10:52.369Z,101343.06
2018-09-17T01:13:56.734Z,101340.02
2018-09-17T01:17:01.064Z,101341.33
2018-09-17T01:20:05.369Z,101349.14
2018-09-17T01:23:09.705Z,101354.31
2018-09-17T01:26:14.019Z,101342.48
2018-09-17T01:29:18.371Z,101338.55
2018-09-17T01:32:23.543Z,101343.38
2018-09-17T01:35:27.797Z,101349.02
2018-09-17T01:38:32.135Z,101354.24
2018-09-17T01:41:36.480Z,101356.02
2018-09-17T01:44:40.759Z,101362.05
2018-09-17T01:47:45.098Z,101365.07
2018-09-17T01:50:49.412Z,101362.02
2018-09-17T01:53:53.736Z,101365.54
2018-09-17T01:56:57.990Z,101367.75
2018-09-17T02:00:02.311Z,101374.28
2018-09-17T02:03:06.610Z,101379.58
2018-09-17T02:06:10.934Z,101388.39
2018-09-17T02:09:15.254Z,101385.06
2018-09-17T02:12:19.526Z,101381.63
2018-09-17T02:15:23.884Z,101379.52
2018-09-17T02:18:28.218Z,101381.31
2018-09-17T02:21:32.525Z,101380.03
2018-09-17T02:24:36.780Z,101384.45
2018-09-17T02:27:41.045Z,101387.56
2018-09-17T02:30:45.362Z,101392.81
2018-09-17T02:33:49.813Z,101388.53
2018-09-17T02:36:54.442Z,101394.26
2018-09-17T02:39:58.668Z,101388.20
2018-09-17T02:43:02.983Z,101393.47
2018-09-17T02:46:07.320Z,101397.85
2018-09-17T02:49:11.646Z,101396.13
2018-09-17T02:52:15.971Z,101405.80
2018-09-17T02:55:20.298Z,101397.56
2018-09-17T02:58:24.596Z,101398.02
2018-09-17T03:01:28.912Z,101397.65
2018-09-17T03:04:33.236Z,101398.13
2018-09-17T03:07:37.496Z,101398.55
2018-09-17T03:10:41.744Z,101400.72
2018-09-17T03:13:46.111Z,101398.50
2018-09-17T03:17:06.659Z,101404.18
2018-09-17T03:20:10.921Z,101404.16
2018-09-17T03:23:15.239Z,101411.14
2018-09-17T03:26:19.831Z,101400.66
2018-09-17T03:29:24.117Z,101405.10
2018-09-17T03:32:28.421Z,101401.62
2018-09-17T03:35:32.729Z,101412.95
2018-09-17T03:38:43.768Z,101400.72
2018-09-17T03:41:48.032Z,101401.95
2018-09-17T03:44:52.361Z,101398.89
2018-09-17T03:47:56.715Z,101401.95
2018-09-17T03:51:01.682Z,101406.27
2018-09-17T03:54:06.040Z,101392.25
2018-09-17T03:57:10.315Z,101387.42
2018-09-17T04:00:14.574Z,101390.88
2018-09-17T04:03:18.909Z,101391.70
2018-09-17T04:06:23.176Z,101381.58
2018-09-17T04:09:27.545Z,101375.45
2018-09-17T04:12:31.860Z,101356.64
2018-09-17T04:15:36.212Z,101365.37
2018-09-17T04:18:40.624Z,101369.27
2018-09-17T04:21:44.932Z,101371.48
2018-09-17T04:24:49.251Z,101367.09
2018-09-17T04:27:53.582Z,101366.66
2018-09-17T04:30:58.365Z,101369.70
2018-09-17T04:34:02.637Z,101364.01
2018-09-17T04:37:06.931Z,101373.17
2018-09-17T04:40:11.286Z,101361.77
2018-09-17T04:43:15.696Z,101376.17
2018-09-17T04:46:20.016Z,101375.23
2018-09-17T04:49:24.352Z,101376.02
2018-09-17T04:52:28.671Z,101374.69
2018-09-17T04:55:32.993Z,101378.09
2018-09-17T04:58:37.315Z,101382.01
2018-09-17T05:01:41.683Z,101384.09
2018-09-17T05:04:46.099Z,101390.59
2018-09-17T05:07:50.376Z,101387.95
2018-09-17T05:10:54.705Z,101389.73
2018-09-17T05:13:58.992Z,101391.88
2018-09-17T05:17:03.351Z,101388.80
2018-09-17T05:20:07.820Z,101390.13
2018-09-17T05:23:12.182Z,101404.91
2018-09-17T05:26:16.512Z,101397.00
2018-09-17T05:29:20.849Z,101402.23
2018-09-17T05:32:25.204Z,101405.69
2018-09-17T05:35:29.607Z,101405.72
2018-09-17T05:38:33.920Z,101405.69
2018-09-17T05:41:38.376Z,101409.61
2018-09-17T05:44:42.823Z,101403.08
2018-09-17T05:47:47.184Z,101408.73
2018-09-17T05:50:51.729Z,101411.39
2018-09-17T05:53:56.099Z,101421.03
2018-09-17T05:57:00.441Z,101425.87
2018-09-17T06:00:05.784Z,101433.78
2018-09-17T06:03:10.091Z,101423.45
2018-09-17T06:06:14.412Z,101434.88
2018-09-17T06:09:18.754Z,101417.91
2018-09-17T06:12:23.172Z,101424.03
2018-09-17T06:15:27.483Z,101429.67
2018-09-17T06:18:31.836Z,101431.86
2018-09-17T06:21:36.276Z,101427.50
2018-09-17T06:24:40.562Z,101436.24
2018-09-17T06:27:44.886Z,101438.48
2018-09-17T06:30:49.202Z,101435.98
2018-09-17T06:33:53.552Z,101436.54
2018-09-17T06:40:02.302Z,101458.57
2018-09-17T06:43:06.628Z,101459.52
2018-09-17T06:46:10.924Z,101452.16
2018-09-17T06:49:15.263Z,101457.00
2018-09-17T06:52:19.688Z,101457.05
2018-09-17T06:55:23.954Z,101447.91
2018-09-17T06:58:28.305Z,101451.43
2018-09-17T07:01:32.660Z,101461.95
2018-09-17T07:04:36.949Z,101470.73
2018-09-17T07:07:41.301Z,101473.85
2018-09-17T07:10:45.619Z,101477.83
2018-09-17T07:13:49.943Z,101470.53
2018-09-17T07:16:54.252Z,101479.78
2018-09-17T07:19:58.617Z,101469.30
2018-09-17T07:23:02.885Z,101475.45
2018-09-17T07:26:07.371Z,101468.89
2018-09-17T07:29:11.595Z,101464.58
2018-09-17T07:32:15.977Z,101458.89
2018-09-17T07:35:20.271Z,101465.93
2018-09-17T07:38:24.599Z,101472.08
2018-09-17T07:41:28.869Z,101477.41
2018-09-17T07:44:33.211Z,101481.86
2018-09-17T07:47:37.525Z,101472.30
2018-09-17T07:50:41.770Z,101469.75
2018-09-17T07:53:46.113Z,101469.02
2018-09-17T07:56:50.420Z,101466.48
2018-09-17T07:59:54.709Z,101460.77
2018-09-17T08:02:59.078Z,101460.83
2018-09-17T08:06:03.464Z,101469.16
2018-09-17T08:09:12.070Z,101463.91
2018-09-17T08:12:16.457Z,101468.73
2018-09-17T08:15:21.635Z,101479.23
2018-09-17T08:18:26.004Z,101484.50
2018-09-17T08:21:30.298Z,101481.89
2018-09-17T08:24:34.721Z,101485.83
2018-09-17T08:27:39.127Z,101481.01
2018-09-17T08:30:43.381Z,101484.94
2018-09-17T08:33:47.697Z,101484.06
2018-09-17T08:36:52.470Z,101490.20
2018-09-17T08:39:56.789Z,101488.00
2018-09-17T08:43:01.083Z,101488.48
2018-09-17T08:46:05.571Z,101480.16
2018-09-17T08:49:09.923Z,101483.66
2018-09-17T08:52:14.366Z,101481.45
2018-09-17T08:55:23.887Z,101478.39
2018-09-17T08:58:33.473Z,101487.59
2018-09-17T09:01:43.110Z,101484.92
2018-09-17T09:04:52.616Z,101486.66
2018-09-17T09:07:56.979Z,101493.66
2018-09-17T09:11:06.645Z,101489.24
2018-09-17T09:14:14.978Z,101493.20
2018-09-17T09:17:19.332Z,101487.94
2018-09-17T09:20:24.442Z,101489.66
2018-09-17T09:23:28.797Z,101489.21
2018-09-17T09:26:33.082Z,101473.41
2018-09-17T09:29:37.426Z,101476.05
2018-09-17T09:32:41.757Z,101467.66
2018-09-17T09:35:46.035Z,101477.30
2018-09-17T09:38:50.388Z,101469.88
2018-09-17T09:41:54.820Z,101468.99
2018-09-17T09:44:59.149Z,101465.50
2018-09-17T09:48:03.486Z,101460.70
2018-09-17T09:51:07.830Z,101463.70
2018-09-17T09:54:12.121Z,101463.63
2018-09-17T09:57:16.486Z,101464.45
2018-09-17T10:00:26.120Z,101463.48
2018-09-17T10:03:34.494Z,101459.91
2018-09-17T10:06:39.127Z,101469.61
2018-09-17T10:09:48.759Z,101465.19
2018-09-17T10:12:58.477Z,101463.44
2018-09-17T10:16:08.043Z,101464.73
2018-09-17T10:19:23.880Z,101461.98
2018-09-17T10:22:28.148Z,101463.19
2018-09-17T10:25:32.438Z,101460.45
2018-09-17T10:28:36.725Z,101461.20
2018-09-17T10:31:41.041Z,101451.56
2018-09-17T10:34:45.490Z,101458.50
2018-09-17T10:37:49.781Z,101468.63
2018-09-17T10:40:55.831Z,101465.02
2018-09-17T10:44:00.114Z,101465.02
2018-09-17T10:47:04.441Z,101463.63
2018-09-17T10:50:08.816Z,101456.48
2018-09-17T10:53:13.156Z,101448.61
2018-09-17T10:56:17.482Z,101446.66
2018-09-17T10:59:21.788Z,101451.08
2018-09-17T11:02:26.117Z,101454.03
2018-09-17T11:05:30.538Z,101443.41
2018-09-17T11:08:34.825Z,101439.61
2018-09-17T11:11:39.207Z,101448.30
2018-09-17T11:14:43.436Z,101446.92
2018-09-17T11:17:47.758Z,101453.17
2018-09-17T11:20:51.998Z,101453.72
2018-09-17T11:23:56.418Z,101456.81
2018-09-17T11:27:00.800Z,101462.09
2018-09-17T11:30:05.404Z,101457.19
2018-09-17T11:33:09.924Z,101459.31
2018-09-17T11:36:14.189Z,101463.64
2018-09-17T11:39:18.470Z,101461.00
2018-09-17T11:42:22.792Z,101459.66
2018-09-17T11:45:27.118Z,101459.42
2018-09-17T11:48:31.463Z,101468.52
2018-09-17T11:51:35.746Z,101461.16
2018-09-17T11:54:40.095Z,101460.95
2018-09-17T11:57:44.374Z,101468.12
2018-09-17T12:00:54.020Z,101470.76
2018-09-17T12:04:03.650Z,101470.26
2018-09-17T12:07:13.258Z,101471.17
2018-09-17T12:10:17.559Z,101469.08
2018-09-17T12:13:21.880Z,101467.45
2018-09-17T12:16:26.235Z,101463.09
2018-09-17T12:19:30.504Z,101468.46
2018-09-17T12:22:34.892Z,101465.22
2018-09-17T12:25:39.217Z,101457.66
2018-09-17T12:28:43.493Z,101456.12
2018-09-17T12:31:47.762Z,101453.88
2018-09-17T12:34:52.073Z,101452.48
2018-09-17T12:37:56.645Z,101454.14
2018-09-17T12:41:00.932Z,101448.36
2018-09-17T12:44:05.258Z,101452.38
2018-09-17T12:47:09.620Z,101450.54
2018-09-17T12:50:13.972Z,101450.89
2018-09-17T12:53:18.267Z,101451.23
2018-09-17T12:56:22.576Z,101451.08
2018-09-17T12:59:27.023Z,101443.05
2018-09-17T13:02:31.357Z,101435.45
2018-09-17T13:05:35.628Z,101436.70
2018-09-17T13:08:40.027Z,101441.60
2018-09-17T13:11:44.285Z,101435.80
2018-09-17T13:14:48.715Z,101431.56
2018-09-17T13:17:52.981Z,101427.28
2018-09-17T13:20:57.252Z,101416.34
2018-09-17T13:24:01.591Z,101413.97
2018-09-17T13:27:05.913Z,101413.19
2018-09-17T13:30:10.253Z,101421.44
2018-09-17T13:33:15.348Z,101410.98
2018-09-17T13:36:19.742Z,101417.55
2018-09-17T13:39:24.120Z,101420.31
2018-09-17T13:42:28.735Z,101405.12
2018-09-17T13:45:33.205Z,101407.23
2018-09-17T13:48:37.628Z,101405.44
2018-09-17T13:54:45.360Z,101399.23
2018-09-17T13:57:49.675Z,101403.37
2018-09-17T14:00:53.983Z,101401.45
2018-09-17T14:03:58.286Z,101397.52
2018-09-17T14:07:02.635Z,101401.03
2018-09-17T14:10:07.655Z,101406.46
2018-09-17T14:13:12.012Z,101399.77
2018-09-17T14:16:20.511Z,101403.20
2018-09-17T14:19:24.801Z,101397.03
2018-09-17T14:22:29.135Z,101399.61
2018-09-17T14:25:33.465Z,101396.30
2018-09-17T14:28:37.798Z,101401.41
2018-09-17T14:31:47.369Z,101403.19
2018-09-17T14:34:51.771Z,101395.91
2018-09-17T14:37:56.089Z,101391.59
2018-09-17T14:41:00.522Z,101398.41
2018-09-17T14:44:04.815Z,101401.12
2018-09-17T14:47:09.095Z,101391.52
2018-09-17T14:50:13.478Z,101392.20
2018-09-17T14:53:17.883Z,101390.09
2018-09-17T14:56:22.232Z,101383.35
2018-09-17T14:59:26.520Z,101381.98
2018-09-17T15:02:30.862Z,101388.50
2018-09-17T15:05:35.147Z,101390.49
2018-09-17T15:08:39.589Z,101384.55
2018-09-17T15:11:43.805Z,101381.27
2018-09-17T15:14:48.233Z,101385.49
2018-09-17T15:17:52.611Z,101379.64
2018-09-17T15:20:57.026Z,101373.95
2018-09-17T15:24:01.356Z,101376.08
2018-09-17T15:27:05.614Z,101375.63
2018-09-17T15:30:10.066Z,101380.17
2018-09-17T15:33:14.396Z,101379.23
2018-09-17T15:36:18.695Z,101374.42
2018-09-17T15:39:23.025Z,101369.07
2018-09-17T15:42:27.359Z,101368.98
2018-09-17T15:45:31.923Z,101368.66
2018-09-17T15:48:36.282Z,101376.42
2018-09-17T15:51:40.735Z,101371.59
2018-09-17T15:54:45.154Z,101368.33
2018-09-17T15:57:49.642Z,101367.22
2018-09-17T16:00:53.971Z,101373.06
2018-09-17T16:03:59.018Z,101373.59
2018-09-17T16:07:03.316Z,101382.03
2018-09-17T16:10:08.125Z,101376.30
2018-09-17T16:13:12.683Z,101380.55
2018-09-17T16:16:17.057Z,101389.45
2018-09-17T16:19:21.470Z,101389.16
2018-09-17T16:22:25.766Z,101392.74
2018-09-17T16:25:30.090Z,101395.53
2018-09-17T16:28:34.364Z,101394.77
2018-09-17T16:31:38.687Z,101404.56
2018-09-17T16:34:43.092Z,101398.94
2018-09-17T16:37:47.605Z,101405.98
2018-09-17T16:40:51.950Z,101398.07
2018-09-17T16:43:56.239Z,101395.85
2018-09-17T16:47:00.590Z,101396.36
2018-09-17T16:50:04.953Z,101400.78
2018-09-17T16:53:09.321Z,101391.59
2018-09-17T16:56:13.625Z,101392.52
2018-09-17T16:59:19.053Z,101393.45
2018-09-17T17:02:24.022Z,101400.58
2018-09-17T17:05:28.437Z,101400.58
2018-09-17T17:08:32.733Z,101397.14
2018-09-17T17:11:37.099Z,101392.80
2018-09-17T17:14:41.505Z,101401.19
2018-09-17T17:17:46.036Z,101402.54
2018-09-17T17:20:50.292Z,101396.43
2018-09-17T17:23:54.657Z,101393.80
2018-09-17T17:26:59.013Z,101393.37
2018-09-17T17:30:04.353Z,101393.85
2018-09-17T17:33:09.505Z,101393.43
2018-09-17T17:36:14.782Z,101395.16
2018-09-17T17:39:20.223Z,101398.23
2018-09-17T17:42:25.524Z,101399.98
2018-09-17T17:45:30.760Z,101388.14
2018-09-17T17:48:35.916Z,101394.28
2018-09-17T17:51:40.736Z,101399.97
2018-09-17T17:54:46.490Z,101402.18
2018-09-17T17:57:52.009Z,101401.30
2018-09-17T18:00:57.646Z,101404.36
2018-09-17T18:04:02.075Z,101404.36
2018-09-17T18:07:06.397Z,101404.80
2018-09-17T18:10:10.724Z,101406.09
2018-09-17T18:13:15.205Z,101406.98
2018-09-17T18:16:20.789Z,101405.65
2018-09-17T18:19:25.285Z,101411.34
2018-09-17T18:22:29.698Z,101420.95
2018-09-17T18:25:34.084Z,101416.13
2018-09-17T18:28:38.684Z,101416.55
2018-09-17T18:31:43.108Z,101417.85
2018-09-17T18:34:47.557Z,101412.14
2018-09-17T18:37:52.046Z,101413.88
2018-09-17T18:40:56.575Z,101415.20
2018-09-17T18:44:01.209Z,101414.70
2018-09-17T18:47:06.001Z,101411.20
2018-09-17T18:50:10.908Z,101416.01
2018-09-17T18:53:15.792Z,101405.06
2018-09-17T18:56:20.574Z,101403.27
2018-09-17T18:59:25.222Z,101401.52
2018-09-17T19:02:29.951Z,101402.78
2018-09-17T19:05:34.562Z,101397.53
2018-09-17T19:08:39.348Z,101398.80
2018-09-17T19:11:44.254Z,101400.97
2018-09-17T19:14:54.076Z,101395.67
2018-09-17T19:18:03.997Z,101392.14
2018-09-17T19:21:08.910Z,101396.08
2018-09-17T19:24:13.499Z,101387.79
2018-09-17T19:27:18.108Z,101391.27
2018-09-17T19:30:22.839Z,101391.72
2018-09-17T19:33:27.565Z,101393.02
2018-09-17T19:36:32.383Z,101387.31
2018-09-17T19:39:42.193Z,101382.05
2018-09-17T19:42:48.109Z,101378.95
2018-09-17T19:45:58.844Z,101372.38
2018-09-17T19:49:03.640Z,101367.54
2018-09-17T19:52:13.521Z,101360.98
2018-09-17T19:55:18.205Z,101364.44
2018-09-17T19:58:27.797Z,101350.45
2018-09-17T20:01:32.274Z,101353.92
2018-09-17T20:04:42.043Z,101355.66
2018-09-17T20:07:46.787Z,101346.43
2018-09-17T20:10:51.232Z,101344.59
2018-09-17T20:13:55.644Z,101346.31
2018-09-17T20:16:59.993Z,101342.33
2018-09-17T20:20:04.419Z,101348.81
2018-09-17T20:23:08.821Z,101342.66
2018-09-17T20:26:13.296Z,101344.83
2018-09-17T20:29:17.679Z,101339.56
2018-09-17T20:32:22.059Z,101343.02
2018-09-17T20:35:26.533Z,101338.61
2018-09-17T20:38:30.955Z,101337.70
2018-09-17T20:41:35.330Z,101337.23
2018-09-17T20:44:39.834Z,101343.78
2018-09-17T20:47:44.149Z,101339.88
2018-09-17T20:50:48.666Z,101334.64
2018-09-17T20:53:53.022Z,101332.85
2018-09-17T20:56:57.348Z,101329.78
2018-09-17T21:00:01.697Z,101326.22
2018-09-17T21:03:06.129Z,101323.14
2018-09-17T21:06:10.464Z,101321.83
2018-09-17T21:09:14.799Z,101320.52
2018-09-17T21:12:19.893Z,101313.14
2018-09-17T21:15:25.869Z,101310.95
2018-09-17T21:18:31.400Z,101306.13
2018-09-17T21:21:36.797Z,101304.39
2018-09-17T21:24:42.154Z,101300.47
2018-09-17T21:27:47.313Z,101300.00
2018-09-17T21:30:53.284Z,101300.85
2018-09-17T21:33:59.220Z,101308.22
2018-09-17T21:37:05.115Z,101302.07
2018-09-17T21:40:11.011Z,101305.08
2018-09-17T21:43:16.831Z,101297.61
2018-09-17T21:46:22.630Z,101301.02
2018-09-17T21:49:28.329Z,101296.61
2018-09-17T21:52:33.716Z,101299.58
2018-09-17T21:55:39.119Z,101289.96
2018-09-17T21:58:43.456Z,101289.03
2018-09-17T22:01:47.751Z,101278.05
2018-09-17T22:04:52.081Z,101281.02
2018-09-17T22:07:56.412Z,101277.51
2018-09-17T22:11:00.725Z,101277.88
2018-09-17T22:14:05.073Z,101272.66
2018-09-17T22:17:09.369Z,101270.91
2018-09-17T22:20:14.193Z,101270.88
2018-09-17T22:23:18.623Z,101260.43
2018-09-17T22:26:22.914Z,101261.73
2018-09-17T22:29:27.264Z,101263.88
2018-09-17T22:32:31.609Z,101263.42
2018-09-17T22:35:35.904Z,101254.34
2018-09-17T22:38:40.220Z,101246.06
2018-09-17T22:41:44.479Z,101250.41
2018-09-17T22:44:48.892Z,101245.21
2018-09-17T22:47:53.184Z,101234.36
2018-09-17T22:50:57.514Z,101228.69
2018-09-17T22:54:01.846Z,101232.17
2018-09-17T22:57:06.732Z,101228.66
2018-09-17T23:00:11.124Z,101225.17
2018-09-17T23:03:15.421Z,101229.13
2018-09-17T23:06:19.761Z,101226.08
2018-09-17T23:09:24.067Z,101219.95
2018-09-17T23:12:28.400Z,101223.87
2018-09-17T23:15:32.704Z,101222.56
2018-09-17T23:18:36.968Z,101222.97
2018-09-17T23:21:41.343Z,101220.33
2018-09-17T23:24:45.608Z,101218.12
2018-09-17T23:27:49.852Z,101213.30
2018-09-17T23:30:54.196Z,101211.10
2018-09-17T23:33:58.518Z,101204.53
2018-09-17T23:37:02.754Z,101196.70
2018-09-17T23:40:07.084Z,101195.36
2018-09-17T23:43:11.335Z,101197.52
2018-09-17T23:46:15.631Z,101193.10
2018-09-17T23:49:19.973Z,101190.87
2018-09-17T23:52:24.240Z,101186.05
2018-09-17T23:55:28.593Z,101182.98
2018-09-17T23:58:32.853Z,101182.91
